Time;durP1;ratioP1;P1;durP2;ratioP2;P2;SDS_P1;SDS_P2;PMS_P1;PMS_P2;Temp;Humidity;BMP_temperature;BMP_pressure;BME280_temperature;BME280_humidity;BME280_pressure;Samples;Min_cycle;Max_cycle;Signal;HPM_P1;HPM_P2
2023/09/11 00:02:14;;;;;;;6.45;5.85;;;23.40;60.80;;;;;;5014339;28;20197;-88
2023/09/11 00:04:41;;;;;;;6.70;6.05;;;23.40;60.90;;;;;;5014321;28;20603;-88
2023/09/11 00:07:10;;;;;;;6.97;5.68;;;23.40;60.50;;;;;;5013867;28;20243;-87
2023/09/11 00:09:37;;;;;;;6.88;6.15;;;23.40;60.50;;;;;;5014123;28;20637;-87
2023/09/11 00:12:05;;;;;;;7.00;6.35;;;23.40;60.60;;;;;;5014776;28;20652;-87
2023/09/11 00:14:32;;;;;;;6.82;6.13;;;23.40;61.10;;;;;;5013973;28;20258;-88
2023/09/11 00:16:59;;;;;;;6.47;5.88;;;23.40;60.80;;;;;;5013473;28;20197;-88
2023/09/11 00:19:26;;;;;;;7.35;6.68;;;23.40;60.80;;;;;;4997646;28;20320;-88
2023/09/11 00:21:53;;;;;;;6.88;6.28;;;23.30;61.00;;;;;;5013093;28;20208;-87
2023/09/11 00:24:21;;;;;;;7.35;6.75;;;23.30;61.10;;;;;;5013230;28;20274;-87
2023/09/11 00:26:48;;;;;;;7.93;6.32;;;23.30;60.80;;;;;;5013253;28;20626;-87
2023/09/11 00:29:15;;;;;;;6.65;6.05;;;23.40;60.70;;;;;;5013179;28;20220;-88
2023/09/11 00:31:42;;;;;;;7.45;6.63;;;23.30;61.00;;;;;;5013031;28;20291;-87
2023/09/11 00:34:09;;;;;;;7.15;6.20;;;23.30;60.80;;;;;;5013138;28;20204;-88
2023/09/11 00:36:37;;;;;;;6.80;6.10;;;23.30;60.60;;;;;;4997069;28;20193;-88
2023/09/11 00:39:04;;;;;;;6.90;6.30;;;23.30;60.70;;;;;;5012633;28;20294;-88
2023/09/11 00:41:33;;;;;;;6.93;6.28;;;23.30;61.10;;;;;;5013077;28;20211;-88
2023/09/11 00:44:00;;;;;;;7.47;6.32;;;23.30;60.60;;;;;;5012847;28;20193;-88
2023/09/11 00:46:26;;;;;;;7.00;6.30;;;23.30;61.00;;;;;;5012756;28;20680;-88
2023/09/11 00:48:54;;;;;;;6.78;6.10;;;23.30;60.80;;;;;;5012963;28;20655;-88
2023/09/11 00:51:21;;;;;;;7.18;6.47;;;23.20;60.90;;;;;;5013051;28;20200;-88
2023/09/11 00:53:48;;;;;;;6.43;5.82;;;23.20;60.70;;;;;;5012775;28;20201;-87
2023/09/11 00:56:15;;;;;;;7.78;6.35;;;23.20;60.90;;;;;;5013444;28;20199;-87
2023/09/11 00:58:43;;;;;;;6.78;6.18;;;23.20;60.80;;;;;;5012945;28;20197;-88
2023/09/11 01:01:11;;;;;;;7.10;6.47;;;23.20;60.90;;;;;;5013073;28;20201;-88
2023/09/11 01:03:38;;;;;;;6.38;5.88;;;23.10;60.60;;;;;;5013530;28;20201;-88
2023/09/11 01:06:05;;;;;;;7.07;6.47;;;23.10;61.00;;;;;;5013713;28;20208;-88
2023/09/11 01:08:32;;;;;;;7.47;5.70;;;23.10;61.00;;;;;;5012899;28;20228;-88
2023/09/11 01:10:59;;;;;;;7.50;6.80;;;23.10;60.50;;;;;;5014734;28;20216;-88
2023/09/11 01:13:26;;;;;;;7.05;6.35;;;23.10;60.70;;;;;;5016959;28;20287;-88
2023/09/11 01:16:08;;;;;;;6.72;6.07;;;23.10;60.80;;;;;;5016055;28;20266;-88
2023/09/11 01:18:39;;;;;;;7.10;6.50;;;23.10;61.20;;;;;;5016402;28;20202;-88
2023/09/11 01:21:23;;;;;;;7.00;6.38;;;23.10;61.10;;;;;;5016440;28;20193;-88
2023/09/11 01:23:56;;;;;;;7.03;6.35;;;23.10;61.10;;;;;;5016497;28;20189;-87
2023/09/11 01:26:41;;;;;;;7.50;6.68;;;23.10;61.10;;;;;;5016284;28;20215;-88
2023/09/11 01:29:11;;;;;;;8.00;7.20;;;23.00;60.80;;;;;;5015941;28;20647;-88
2023/09/11 01:31:38;;;;;;;7.28;6.57;;;23.00;61.20;;;;;;5016424;28;20295;-88
2023/09/11 01:34:06;;;;;;;7.10;6.40;;;22.90;60.80;;;;;;5016178;28;20212;-88
2023/09/11 01:36:33;;;;;;;7.13;6.53;;;23.00;61.00;;;;;;5016211;28;20255;-88
2023/09/11 01:39:00;;;;;;;7.30;6.60;;;22.90;60.70;;;;;;5016063;28;20710;-88
2023/09/11 01:41:28;;;;;;;6.65;6.05;;;23.00;61.00;;;;;;5016458;28;20200;-88
2023/09/11 01:43:56;;;;;;;6.55;6.00;;;23.00;60.90;;;;;;5016624;28;20200;-88
2023/09/11 01:46:25;;;;;;;7.18;6.57;;;23.00;61.20;;;;;;5016871;28;20201;-88
2023/09/11 01:48:52;;;;;;;6.90;6.30;;;22.90;60.70;;;;;;5016767;28;20276;-88
2023/09/11 01:51:19;;;;;;;7.38;6.15;;;22.90;61.10;;;;;;5016847;28;20284;-88
2023/09/11 01:53:46;;;;;;;6.88;6.28;;;22.90;61.30;;;;;;5016303;28;20711;-89
2023/09/11 01:56:13;;;;;;;6.80;6.10;;;22.90;61.30;;;;;;5016253;28;20675;-88
2023/09/11 01:58:41;;;;;;;7.00;6.38;;;22.90;61.20;;;;;;5017091;28;20203;-88
2023/09/11 02:01:08;;;;;;;7.97;6.68;;;22.90;61.10;;;;;;5017940;28;20193;-88
2023/09/11 02:03:36;;;;;;;7.45;6.53;;;22.90;61.20;;;;;;5019646;28;20205;-87
2023/09/11 02:06:03;;;;;;;7.03;6.43;;;22.90;61.10;;;;;;5018008;28;20193;-87
2023/09/11 02:08:30;;;;;;;7.68;6.53;;;22.80;61.10;;;;;;5018146;28;20229;-87
2023/09/11 02:10:57;;;;;;;7.28;6.45;;;22.80;61.30;;;;;;5003106;28;20311;-87
2023/09/11 02:13:24;;;;;;;7.80;6.80;;;22.80;61.20;;;;;;5023206;28;20199;-88
2023/09/11 02:15:52;;;;;;;7.85;6.57;;;22.80;61.10;;;;;;5027003;28;20204;-87
2023/09/11 02:18:19;;;;;;;7.20;6.45;;;22.80;61.30;;;;;;5020390;28;20203;-87
2023/09/11 02:20:48;;;;;;;6.70;6.18;;;22.80;61.30;;;;;;5005007;28;20240;-87
2023/09/11 02:23:15;;;;;;;6.93;6.22;;;22.80;61.30;;;;;;5015041;28;20697;-89
2023/09/11 02:25:42;;;;;;;8.07;6.85;;;22.80;61.30;;;;;;5016406;28;20200;-89
2023/09/11 02:28:10;;;;;;;7.18;6.47;;;22.80;61.30;;;;;;5015402;28;20216;-89
2023/09/11 02:30:37;;;;;;;7.45;6.68;;;22.80;61.40;;;;;;5015800;28;20224;-89
2023/09/11 02:33:04;;;;;;;6.88;6.22;;;22.80;61.40;;;;;;5015307;28;20220;-89
2023/09/11 02:35:31;;;;;;;7.82;7.00;;;22.70;61.40;;;;;;5015107;28;20270;-89
2023/09/11 02:38:00;;;;;;;7.15;6.53;;;22.70;61.20;;;;;;5015522;28;20201;-89
2023/09/11 02:40:27;;;;;;;7.10;6.50;;;22.70;61.30;;;;;;5014880;28;20220;-89
2023/09/11 02:42:55;;;;;;;7.97;7.18;;;22.70;61.30;;;;;;5014685;28;20706;-89
2023/09/11 02:45:22;;;;;;;7.93;7.13;;;22.70;61.10;;;;;;5014613;28;20255;-89
2023/09/11 02:47:49;;;;;;;8.05;7.00;;;22.70;61.30;;;;;;5014614;28;20571;-89
2023/09/11 02:50:16;;;;;;;7.00;6.30;;;22.60;61.20;;;;;;5014417;28;20220;-88
2023/09/11 02:52:43;;;;;;;7.07;6.47;;;22.70;61.40;;;;;;5014855;28;20251;-89
2023/09/11 02:55:11;;;;;;;6.93;6.32;;;22.60;61.10;;;;;;5014744;28;20237;-88
2023/09/11 02:57:38;;;;;;;6.60;6.07;;;22.60;61.20;;;;;;5014648;28;20222;-89
2023/09/11 03:00:08;;;;;;;7.18;6.53;;;22.60;61.20;;;;;;5014631;28;20220;-89
2023/09/11 03:02:36;;;;;;;7.63;6.90;;;22.60;61.20;;;;;;5014552;28;20193;-89
2023/09/11 03:05:03;;;;;;;7.40;6.57;;;22.50;60.50;;;;;;5014484;28;20221;-88
2023/09/11 03:07:30;;;;;;;7.43;6.70;;;22.60;60.60;;;;;;5014372;28;20319;-88
2023/09/11 03:09:57;;;;;;;7.97;7.07;;;22.50;60.50;;;;;;5014290;28;20217;-89
2023/09/11 03:12:25;;;;;;;8.60;6.90;;;22.50;60.40;;;;;;5014327;28;20203;-89
2023/09/11 03:14:53;;;;;;;8.15;6.57;;;22.60;60.80;;;;;;5014187;28;20200;-89
2023/09/11 03:17:20;;;;;;;6.82;6.22;;;22.60;60.40;;;;;;4997809;28;20632;-89
2023/09/11 03:19:47;;;;;;;7.30;6.63;;;22.60;60.20;;;;;;5013963;28;20213;-88
2023/09/11 03:22:14;;;;;;;7.30;6.60;;;22.60;60.10;;;;;;4998175;28;20207;-88
2023/09/11 03:24:41;;;;;;;7.82;6.68;;;22.70;60.30;;;;;;5013975;28;20231;-88
2023/09/11 03:27:09;;;;;;;7.90;7.10;;;22.80;60.00;;;;;;5014052;28;20200;-88
2023/09/11 03:29:37;;;;;;;7.15;6.45;;;22.80;59.80;;;;;;5013692;28;20247;-88
2023/09/11 03:32:05;;;;;;;7.13;6.43;;;22.80;59.60;;;;;;5014037;28;20634;-88
2023/09/11 03:34:33;;;;;;;6.82;6.22;;;22.90;59.60;;;;;;4997211;28;20193;-88
2023/09/11 03:37:00;;;;;;;7.38;6.72;;;22.90;59.40;;;;;;5015061;28;20281;-88
2023/09/11 03:39:27;;;;;;;8.15;6.97;;;22.90;59.30;;;;;;5014037;28;20220;-88
2023/09/11 03:41:54;;;;;;;7.75;7.00;;;23.00;59.40;;;;;;5013926;28;20294;-88
2023/09/11 03:44:21;;;;;;;7.90;7.05;;;23.00;59.40;;;;;;5013996;28;20193;-88
2023/09/11 03:46:49;;;;;;;7.38;6.75;;;23.00;59.30;;;;;;4997343;28;20201;-88
2023/09/11 03:49:16;;;;;;;7.72;7.00;;;23.00;59.30;;;;;;5014003;28;20235;-88
2023/09/11 03:51:43;;;;;;;8.57;7.45;;;22.90;59.00;;;;;;5014425;28;20208;-88
2023/09/11 03:54:11;;;;;;;7.97;6.90;;;22.90;59.00;;;;;;5013906;28;20571;-88
2023/09/11 03:56:39;;;;;;;7.93;7.13;;;22.90;59.10;;;;;;5013781;28;20207;-88
2023/09/11 03:59:06;;;;;;;7.57;6.70;;;22.80;59.30;;;;;;5013729;28;20276;-88
2023/09/11 04:01:33;;;;;;;7.63;6.82;;;22.90;59.30;;;;;;5013814;28;20200;-88
2023/09/11 04:04:02;;;;;;;7.07;6.47;;;22.80;59.20;;;;;;4997359;28;20652;-88
2023/09/11 04:06:29;;;;;;;7.18;6.57;;;22.80;59.60;;;;;;5013889;28;20201;-88
2023/09/11 04:08:56;;;;;;;7.88;7.10;;;22.80;59.60;;;;;;5013629;28;20688;-88
2023/09/11 04:11:23;;;;;;;7.32;6.63;;;22.70;59.60;;;;;;5013734;28;20571;-88
2023/09/11 04:13:51;;;;;;;7.65;6.95;;;22.70;59.60;;;;;;5014647;28;20201;-88
2023/09/11 04:16:21;;;;;;;7.80;7.10;;;22.70;59.60;;;;;;5013637;28;20230;-88
2023/09/11 04:18:48;;;;;;;7.35;6.68;;;22.70;59.70;;;;;;5014315;28;20193;-89
2023/09/11 04:21:16;;;;;;;7.82;7.13;;;22.70;59.60;;;;;;5013663;28;20201;-89
2023/09/11 04:23:44;;;;;;;7.68;6.97;;;22.60;59.50;;;;;;5013193;28;20679;-88
2023/09/11 04:26:11;;;;;;;7.28;6.68;;;22.70;59.50;;;;;;4980735;28;20490;-88
2023/09/11 04:28:39;;;;;;;7.82;6.97;;;22.60;59.10;;;;;;5013042;28;20590;-87
2023/09/11 04:31:06;;;;;;;7.85;7.15;;;22.60;59.60;;;;;;5013803;28;20204;-88
2023/09/11 04:33:34;;;;;;;8.02;7.32;;;22.60;59.50;;;;;;5013750;28;20283;-88
2023/09/11 04:36:01;;;;;;;9.27;7.25;;;22.60;59.70;;;;;;5012942;28;20196;-83
2023/09/11 04:38:30;;;;;;;8.25;7.45;;;22.60;60.10;;;;;;5013379;28;20188;-83
2023/09/11 04:40:57;;;;;;;8.07;7.25;;;22.60;60.40;;;;;;5012999;28;20524;-84
2023/09/11 04:43:26;;;;;;;9.65;7.35;;;22.60;60.20;;;;;;5013684;28;20206;-83
2023/09/11 04:45:54;;;;;;;7.80;7.10;;;22.50;59.90;;;;;;5015369;28;20256;-83
2023/09/11 04:48:21;;;;;;;8.43;7.32;;;22.50;59.90;;;;;;5017801;28;20582;-82
2023/09/11 04:50:47;;;;;;;9.52;7.05;;;22.50;59.70;;;;;;5017607;28;20216;-82
2023/09/11 04:53:15;;;;;;;8.55;7.13;;;22.50;59.60;;;;;;5017217;28;20204;-83
2023/09/11 04:55:43;;;;;;;8.60;7.65;;;22.50;59.70;;;;;;5017360;28;20300;-83
2023/09/11 04:58:10;;;;;;;9.82;7.72;;;22.40;59.70;;;;;;5017124;28;20201;-83
2023/09/11 05:00:37;;;;;;;8.10;7.15;;;22.50;59.70;;;;;;5016915;28;20218;-83
2023/09/11 05:03:05;;;;;;;8.10;7.30;;;22.50;59.80;;;;;;5017012;28;20648;-83
2023/09/11 05:05:38;;;;;;;8.38;7.45;;;22.40;59.70;;;;;;5016715;28;20201;-82
2023/09/11 05:08:06;;;;;;;8.20;7.45;;;22.40;59.80;;;;;;5016918;28;20294;-82
2023/09/11 05:10:33;;;;;;;8.32;7.57;;;22.40;59.80;;;;;;5016704;28;20213;-83
2023/09/11 05:13:02;;;;;;;8.07;7.20;;;22.40;59.90;;;;;;5016358;28;20678;-83
2023/09/11 05:15:30;;;;;;;8.07;7.30;;;22.40;59.90;;;;;;5016786;28;20193;-82
2023/09/11 05:17:57;;;;;;;8.18;7.45;;;22.40;59.70;;;;;;5017205;28;20197;-82
2023/09/11 05:20:24;;;;;;;8.10;7.40;;;22.40;59.60;;;;;;5016827;28;20224;-81
2023/09/11 05:22:51;;;;;;;7.68;6.97;;;22.40;59.50;;;;;;5016639;28;20197;-82
2023/09/11 05:25:21;;;;;;;7.93;7.20;;;22.40;59.60;;;;;;5016779;28;20574;-82
2023/09/11 05:27:48;;;;;;;7.95;7.18;;;22.40;59.40;;;;;;5017303;28;20200;-82
2023/09/11 05:30:17;;;;;;;7.50;6.80;;;22.40;59.40;;;;;;5016031;28;20266;-82
2023/09/11 05:32:47;;;;;;;8.15;7.45;;;22.40;59.50;;;;;;5000360;28;20220;-82
2023/09/11 05:35:15;;;;;;;8.18;7.35;;;22.30;59.30;;;;;;5016384;28;20208;-82
2023/09/11 05:37:42;;;;;;;7.90;7.10;;;22.30;59.30;;;;;;5000369;28;20208;-82
2023/09/11 05:40:10;;;;;;;7.97;7.28;;;22.30;59.50;;;;;;5016325;28;20228;-82
2023/09/11 05:42:36;;;;;;;8.77;7.85;;;22.30;59.30;;;;;;5016535;28;20197;-84
2023/09/11 05:45:04;;;;;;;8.75;7.18;;;22.30;59.40;;;;;;5016287;28;20544;-83
2023/09/11 05:47:33;;;;;;;7.90;7.20;;;22.30;59.50;;;;;;5016261;28;20289;-83
2023/09/11 05:50:00;;;;;;;9.88;7.03;;;22.30;59.70;;;;;;5015742;28;20225;-84
2023/09/11 05:52:27;;;;;;;8.68;7.38;;;22.30;59.70;;;;;;5015857;28;20660;-83
2023/09/11 05:54:54;;;;;;;7.82;7.20;;;22.40;59.80;;;;;;5015839;28;20203;-83
2023/09/11 05:57:22;;;;;;;8.00;7.20;;;22.40;59.60;;;;;;4999394;28;20204;-82
2023/09/11 05:59:49;;;;;;;7.60;6.90;;;22.50;59.70;;;;;;5015617;28;20637;-83
2023/09/11 06:02:16;;;;;;;7.75;7.05;;;22.50;59.50;;;;;;5016782;28;20205;-83
2023/09/11 06:04:44;;;;;;;7.82;7.13;;;22.60;59.50;;;;;;5016096;28;20205;-83
2023/09/11 06:07:11;;;;;;;7.60;6.90;;;22.50;59.50;;;;;;5016349;28;20212;-83
2023/09/11 06:09:39;;;;;;;8.68;7.97;;;22.60;59.50;;;;;;5016025;28;20228;-83
2023/09/11 06:12:06;;;;;;;8.48;7.68;;;22.60;59.70;;;;;;5016064;28;20205;-83
2023/09/11 06:14:36;;;;;;;7.60;6.88;;;22.60;59.80;;;;;;5016199;28;20207;-83
2023/09/11 06:17:04;;;;;;;8.77;7.90;;;22.60;60.10;;;;;;4999930;28;20200;-83
2023/09/11 06:19:32;;;;;;;8.02;7.18;;;22.60;61.10;;;;;;5015876;28;20294;-83
2023/09/11 06:22:00;;;;;;;8.38;7.43;;;22.60;60.40;;;;;;5016593;28;20204;-83
2023/09/11 06:24:27;;;;;;;8.57;7.88;;;22.60;60.50;;;;;;5016811;28;20209;-83
2023/09/11 06:27:03;;;;;;;8.48;7.68;;;22.70;60.60;;;;;;5016493;28;20196;-82
2023/09/11 06:29:30;;;;;;;8.45;7.65;;;22.80;60.70;;;;;;5017644;28;20260;-83
2023/09/11 06:31:57;;;;;;;9.00;7.65;;;22.90;60.50;;;;;;5016031;28;20232;-83
2023/09/11 06:34:24;;;;;;;8.73;8.00;;;23.10;60.40;;;;;;5015508;28;20184;-83
2023/09/11 06:36:52;;;;;;;8.60;7.70;;;23.20;60.20;;;;;;5015402;28;20197;-83
2023/09/11 06:39:20;;;;;;;8.35;7.55;;;23.30;60.00;;;;;;5015281;28;20307;-83
2023/09/11 06:41:48;;;;;;;8.90;8.10;;;23.40;59.80;;;;;;5015570;28;20250;-83
2023/09/11 06:44:15;;;;;;;9.05;8.18;;;23.60;59.80;;;;;;5014976;28;20211;-83
2023/09/11 06:46:42;;;;;;;8.77;7.97;;;23.60;59.60;;;;;;5015629;28;20200;-83
2023/09/11 06:49:09;;;;;;;8.52;7.57;;;23.70;59.70;;;;;;5015523;28;20240;-83
2023/09/11 06:51:36;;;;;;;8.55;7.15;;;23.80;59.60;;;;;;5015167;28;20686;-83
2023/09/11 06:54:03;;;;;;;9.07;8.18;;;23.90;59.40;;;;;;5014963;28;20201;-82
2023/09/11 06:56:32;;;;;;;8.80;7.90;;;24.00;59.30;;;;;;5014970;28;20204;-83
2023/09/11 06:58:59;;;;;;;9.93;8.02;;;24.20;59.00;;;;;;5015067;28;20212;-83
2023/09/11 07:01:26;;;;;;;10.85;8.68;;;24.20;58.90;;;;;;5016001;28;20208;-83
2023/09/11 07:03:53;;;;;;;10.07;8.30;;;24.40;58.70;;;;;;5020626;28;20201;-84
2023/09/11 07:06:20;;;;;;;9.32;8.00;;;24.50;58.50;;;;;;5017036;28;20209;-84
2023/09/11 07:08:47;;;;;;;8.20;7.50;;;24.60;58.30;;;;;;5017620;28;20263;-84
2023/09/11 07:11:17;;;;;;;10.13;7.50;;;24.70;58.80;;;;;;5020860;28;20197;-84
2023/09/11 07:13:45;;;;;;;8.38;7.57;;;24.80;58.10;;;;;;5020176;28;20204;-84
2023/09/11 07:16:12;;;;;;;9.10;8.23;;;24.90;58.10;;;;;;5014287;28;20204;-83
2023/09/11 07:18:39;;;;;;;8.50;7.65;;;24.90;58.00;;;;;;4997912;28;20196;-83
2023/09/11 07:21:07;;;;;;;8.93;7.55;;;25.10;57.50;;;;;;5014801;28;20201;-83
2023/09/11 07:23:34;;;;;;;8.27;7.38;;;25.10;56.80;;;;;;4997975;28;20200;-84
2023/09/11 07:26:02;;;;;;;10.65;8.25;;;25.30;56.50;;;;;;5014695;28;20197;-84
2023/09/11 07:28:29;;;;;;;9.10;7.32;;;25.40;57.00;;;;;;5013823;28;20208;-83
2023/09/11 07:30:58;;;;;;;8.65;7.85;;;25.50;56.00;;;;;;5014137;28;20220;-84
2023/09/11 07:33:25;;;;;;;7.95;7.25;;;25.60;55.80;;;;;;5014178;28;20292;-83
2023/09/11 07:35:52;;;;;;;7.93;7.18;;;25.80;55.60;;;;;;5013930;28;20200;-83
2023/09/11 07:38:19;;;;;;;8.18;7.32;;;25.80;55.30;;;;;;5013903;28;20196;-83
2023/09/11 07:40:46;;;;;;;7.95;7.05;;;25.90;55.10;;;;;;5014340;28;20583;-83
2023/09/11 07:43:13;;;;;;;8.40;7.50;;;26.00;54.80;;;;;;5013938;28;20196;-83
2023/09/11 07:45:40;;;;;;;8.18;7.07;;;26.10;54.80;;;;;;5013936;28;20227;-83
2023/09/11 07:48:08;;;;;;;7.78;7.07;;;26.20;54.40;;;;;;5013870;28;20200;-83
2023/09/11 07:50:36;;;;;;;11.48;7.03;;;26.20;54.20;;;;;;5013863;28;20232;-83
2023/09/11 07:53:02;;;;;;;7.65;6.90;;;26.30;54.10;;;;;;5014200;28;20203;-84
2023/09/11 07:55:30;;;;;;;9.98;7.50;;;26.40;53.90;;;;;;5014942;28;20224;-84
2023/09/11 07:57:57;;;;;;;7.63;7.03;;;26.50;53.70;;;;;;5013859;28;20200;-84
2023/09/11 08:00:30;;;;;;;8.40;7.53;;;26.60;53.60;;;;;;5013833;28;20251;-85
2023/09/11 08:02:57;;;;;;;10.75;7.40;;;26.60;53.40;;;;;;5014572;28;20246;-85
2023/09/11 08:05:25;;;;;;;7.32;6.70;;;26.60;53.10;;;;;;5014292;28;20223;-85
2023/09/11 08:07:53;;;;;;;7.78;7.07;;;26.70;53.00;;;;;;5013668;28;20200;-85
2023/09/11 08:10:20;;;;;;;7.72;7.03;;;26.80;52.80;;;;;;5013554;28;20235;-84
2023/09/11 08:12:47;;;;;;;7.38;6.78;;;26.80;52.60;;;;;;5013675;28;20196;-84
2023/09/11 08:15:14;;;;;;;7.60;6.63;;;26.90;52.50;;;;;;5014190;28;20196;-84
2023/09/11 08:17:41;;;;;;;7.72;7.03;;;27.00;52.30;;;;;;5014036;28;20196;-84
2023/09/11 08:20:09;;;;;;;7.57;6.88;;;27.00;52.10;;;;;;5013637;28;20220;-83
2023/09/11 08:22:39;;;;;;;8.10;6.95;;;27.10;52.10;;;;;;5013956;28;20200;-83
2023/09/11 08:25:06;;;;;;;9.05;7.20;;;27.10;51.90;;;;;;5014231;28;20200;-83
2023/09/11 08:27:33;;;;;;;7.25;6.55;;;27.20;51.70;;;;;;5025664;28;20196;-83
2023/09/11 08:30:00;;;;;;;7.00;6.40;;;27.20;51.80;;;;;;5014543;28;20235;-83
2023/09/11 08:32:27;;;;;;;7.43;6.72;;;27.20;51.80;;;;;;5013576;28;20208;-83
2023/09/11 08:34:54;;;;;;;7.38;6.50;;;27.20;51.80;;;;;;5013693;28;20199;-84
2023/09/11 08:37:24;;;;;;;7.63;6.82;;;27.20;51.60;;;;;;5013462;28;20651;-84
2023/09/11 08:39:53;;;;;;;7.78;7.07;;;27.20;51.60;;;;;;5013417;28;20258;-84
2023/09/11 08:42:20;;;;;;;7.05;6.45;;;27.20;51.60;;;;;;5013538;28;20212;-83
2023/09/11 08:44:47;;;;;;;7.40;6.70;;;27.30;51.60;;;;;;5014759;28;20204;-84
2023/09/11 08:47:14;;;;;;;6.43;5.82;;;27.30;51.40;;;;;;5013352;28;20239;-83
2023/09/11 08:49:43;;;;;;;7.75;5.78;;;27.30;51.30;;;;;;5013015;28;20220;-83
2023/09/11 08:52:13;;;;;;;7.05;6.45;;;27.40;51.40;;;;;;5015124;28;20212;-83
2023/09/11 08:54:42;;;;;;;6.80;6.20;;;27.40;51.20;;;;;;5019863;28;20196;-83
2023/09/11 08:57:11;;;;;;;6.85;6.15;;;27.40;51.20;;;;;;5020787;28;20288;-83
2023/09/11 08:59:38;;;;;;;6.45;5.85;;;27.50;51.30;;;;;;5021375;28;20220;-83
2023/09/11 09:02:06;;;;;;;7.57;6.15;;;27.50;51.20;;;;;;5020887;28;20539;-83
2023/09/11 09:04:34;;;;;;;6.75;6.20;;;27.60;51.20;;;;;;5014344;28;20595;-83
2023/09/11 09:07:01;;;;;;;6.70;6.10;;;27.60;51.10;;;;;;5017847;28;20220;-84
2023/09/11 09:09:28;;;;;;;7.35;6.65;;;27.60;50.90;;;;;;5017429;28;20216;-84
2023/09/11 09:11:55;;;;;;;6.32;5.72;;;27.60;50.80;;;;;;5017262;28;20681;-84
2023/09/11 09:14:24;;;;;;;6.75;6.25;;;27.60;50.70;;;;;;5016049;28;20204;-84
2023/09/11 09:16:51;;;;;;;6.65;6.10;;;27.70;50.70;;;;;;5015519;28;20283;-84
2023/09/11 09:19:18;;;;;;;6.22;5.72;;;27.70;50.60;;;;;;4999239;28;20253;-84
2023/09/11 09:22:22;;;;;;;6.95;6.30;;;27.70;50.60;;;;;;5016699;28;20208;-84
2023/09/11 09:24:51;;;;;;;7.00;6.40;;;27.70;50.50;;;;;;5016383;28;20188;-84
2023/09/11 09:27:18;;;;;;;7.30;6.60;;;27.80;50.50;;;;;;5016679;28;20218;-84
2023/09/11 09:29:48;;;;;;;6.75;6.15;;;27.80;50.40;;;;;;5000277;28;20228;-84
2023/09/11 09:32:15;;;;;;;6.90;6.30;;;27.80;50.30;;;;;;5018805;28;20238;-84
2023/09/11 09:34:50;;;;;;;6.50;5.95;;;27.80;50.30;;;;;;5019262;28;20630;-84
2023/09/11 09:37:18;;;;;;;6.38;5.78;;;27.80;50.30;;;;;;5019430;28;20254;-84
2023/09/11 09:39:46;;;;;;;6.60;6.00;;;27.80;50.30;;;;;;5019196;28;20223;-84
2023/09/11 09:42:14;;;;;;;6.78;6.22;;;27.80;50.30;;;;;;5019145;28;20211;-84
2023/09/11 09:44:41;;;;;;;6.47;5.97;;;27.80;50.30;;;;;;5019619;28;20570;-84
2023/09/11 09:47:10;;;;;;;6.70;6.10;;;27.80;50.30;;;;;;5019438;28;20210;-84
2023/09/11 09:49:45;;;;;;;6.90;6.30;;;27.80;50.30;;;;;;5019462;28;20262;-84
2023/09/11 09:52:13;;;;;;;6.63;6.03;;;27.80;50.30;;;;;;5019774;28;20199;-84
2023/09/11 09:54:45;;;;;;;6.65;6.05;;;27.80;50.30;;;;;;5019167;28;20208;-84
2023/09/11 09:57:13;;;;;;;6.30;5.72;;;27.80;50.30;;;;;;5018991;28;20306;-84
2023/09/11 09:59:41;;;;;;;6.45;5.85;;;27.80;50.30;;;;;;5017202;28;20216;-84
2023/09/11 10:02:11;;;;;;;6.57;6.00;;;27.80;50.30;;;;;;5016051;28;20207;-84
2023/09/11 10:04:38;;;;;;;6.45;5.85;;;27.80;50.30;;;;;;5016856;28;20235;-84
2023/09/11 10:07:05;;;;;;;6.50;5.85;;;27.80;50.30;;;;;;5015947;28;20212;-84
2023/09/11 10:09:32;;;;;;;6.70;6.13;;;27.80;50.40;;;;;;5015384;28;20212;-84
2023/09/11 10:12:03;;;;;;;6.32;5.82;;;27.80;50.40;;;;;;5015722;28;20210;-84
2023/09/11 10:14:30;;;;;;;6.47;5.88;;;27.80;50.40;;;;;;5015740;28;20200;-84
2023/09/11 10:16:57;;;;;;;6.57;6.00;;;27.80;50.40;;;;;;5015664;28;20691;-84
2023/09/11 10:19:28;;;;;;;6.40;5.80;;;27.70;50.40;;;;;;5016004;28;20231;-84
2023/09/11 10:21:55;;;;;;;7.70;5.93;;;27.80;50.50;;;;;;5015985;28;20191;-84
2023/09/11 10:24:22;;;;;;;6.70;6.10;;;27.70;50.40;;;;;;5015512;28;20195;-84
2023/09/11 10:26:53;;;;;;;6.10;5.57;;;27.70;50.40;;;;;;5015926;28;20327;-84
2023/09/11 10:29:25;;;;;;;6.10;5.60;;;27.70;51.10;;;;;;5016110;28;20262;-84
2023/09/11 10:31:54;;;;;;;5.90;5.40;;;27.70;50.50;;;;;;5016688;28;20672;-84
2023/09/11 10:34:21;;;;;;;6.43;5.88;;;27.70;50.60;;;;;;5015568;28;20200;-84
2023/09/11 10:36:53;;;;;;;5.97;5.47;;;27.70;50.60;;;;;;5015225;28;20207;-84
2023/09/11 10:39:20;;;;;;;5.97;5.47;;;27.70;50.60;;;;;;5015078;28;20228;-84
2023/09/11 10:41:47;;;;;;;5.97;5.47;;;27.70;51.30;;;;;;5015016;28;20200;-84
2023/09/11 10:44:15;;;;;;;6.13;5.53;;;27.70;50.60;;;;;;5013981;28;20243;-84
2023/09/11 10:46:42;;;;;;;5.95;5.45;;;27.70;50.60;;;;;;5015360;28;20204;-84
2023/09/11 10:49:16;;;;;;;6.30;5.80;;;27.70;50.70;;;;;;5014993;28;20224;-84
2023/09/11 10:51:43;;;;;;;5.95;5.45;;;27.60;50.70;;;;;;5014986;28;20216;-84
2023/09/11 10:54:14;;;;;;;6.18;5.68;;;27.70;50.80;;;;;;5014971;28;20323;-84
2023/09/11 10:56:42;;;;;;;5.68;5.18;;;27.60;50.90;;;;;;5014977;28;20199;-84
2023/09/11 10:59:10;;;;;;;6.03;5.53;;;27.50;51.20;;;;;;5014502;28;20589;-84
2023/09/11 11:01:37;;;;;;;5.95;5.45;;;27.40;51.20;;;;;;5014756;28;20192;-84
2023/09/11 11:04:04;;;;;;;6.20;5.70;;;27.40;51.20;;;;;;5014918;28;20204;-84
2023/09/11 11:06:33;;;;;;;6.05;5.55;;;27.40;51.30;;;;;;5014614;28;20209;-84
2023/09/11 11:09:01;;;;;;;6.25;5.75;;;27.30;51.50;;;;;;5014544;28;20226;-84
2023/09/11 11:11:30;;;;;;;5.97;5.38;;;27.30;51.60;;;;;;5014552;28;20212;-84
2023/09/11 11:14:14;;;;;;;5.80;5.35;;;27.30;51.70;;;;;;5013909;28;20242;-84
2023/09/11 11:16:41;;;;;;;5.72;5.22;;;27.20;51.80;;;;;;5014973;28;20199;-84
2023/09/11 11:19:08;;;;;;;6.53;5.93;;;27.20;51.80;;;;;;5013459;28;20274;-84
2023/09/11 11:21:41;;;;;;;6.03;5.43;;;27.20;51.90;;;;;;5014446;28;20196;-84
2023/09/11 11:24:09;;;;;;;5.80;5.30;;;27.20;52.00;;;;;;5013986;28;20192;-84
2023/09/11 11:26:39;;;;;;;5.85;5.30;;;27.20;52.00;;;;;;5014028;28;20250;-84
2023/09/11 11:29:07;;;;;;;5.70;5.20;;;27.20;52.10;;;;;;5013821;28;20286;-84
2023/09/11 11:31:34;;;;;;;5.68;5.18;;;27.20;52.20;;;;;;5013683;28;20231;-84
2023/09/11 11:34:01;;;;;;;5.82;5.32;;;27.20;52.20;;;;;;5014310;28;20632;-84
2023/09/11 11:36:29;;;;;;;5.93;5.43;;;27.20;52.20;;;;;;5013980;28;20192;-84
2023/09/11 11:38:57;;;;;;;5.40;5.00;;;27.20;52.20;;;;;;5013961;28;20266;-84
2023/09/11 11:41:24;;;;;;;5.88;5.35;;;27.20;52.20;;;;;;5013897;28;20192;-84
2023/09/11 11:43:53;;;;;;;5.80;5.30;;;27.20;52.20;;;;;;5015551;28;20215;-84
2023/09/11 11:46:25;;;;;;;5.45;5.05;;;27.20;52.20;;;;;;5014895;28;20200;-84
2023/09/11 11:48:52;;;;;;;5.75;5.20;;;27.20;52.20;;;;;;5015655;28;20239;-84
2023/09/11 11:51:27;;;;;;;5.30;4.90;;;27.30;52.20;;;;;;5015975;28;20219;-84
2023/09/11 11:53:55;;;;;;;5.70;5.20;;;27.30;52.20;;;;;;5014513;28;20292;-84
2023/09/11 11:56:22;;;;;;;5.32;4.93;;;27.30;52.20;;;;;;5015074;28;20267;-84
2023/09/11 11:58:50;;;;;;;5.57;5.07;;;27.30;52.20;;;;;;5015014;28;20199;-83
2023/09/11 12:01:18;;;;;;;5.35;4.95;;;27.30;52.30;;;;;;4998989;28;20212;-83
2023/09/11 12:03:46;;;;;;;5.45;5.05;;;27.30;52.30;;;;;;5015324;28;20291;-83
2023/09/11 12:06:14;;;;;;;5.10;4.80;;;27.30;52.30;;;;;;5013774;28;20196;-83
2023/09/11 12:08:41;;;;;;;5.68;5.18;;;27.30;52.30;;;;;;5013777;28;20200;-83
2023/09/11 12:11:08;;;;;;;5.43;5.03;;;27.30;52.40;;;;;;5014480;28;20727;-83
2023/09/11 12:13:35;;;;;;;5.80;5.30;;;27.20;52.30;;;;;;5015231;28;20192;-83
2023/09/11 12:16:02;;;;;;;5.93;5.38;;;27.20;52.90;;;;;;5016268;28;20192;-83
2023/09/11 12:18:35;;;;;;;5.55;5.05;;;27.20;52.40;;;;;;5015683;28;20613;-83
2023/09/11 12:21:03;;;;;;;6.00;5.50;;;27.30;52.50;;;;;;5016269;28;20690;-83
2023/09/11 12:23:31;;;;;;;5.57;5.07;;;27.30;52.50;;;;;;5014444;28;20223;-83
2023/09/11 12:25:58;;;;;;;5.28;4.78;;;27.30;52.50;;;;;;5013525;28;20188;-83
2023/09/11 12:28:25;;;;;;;5.45;5.05;;;27.30;52.60;;;;;;5013863;28;20563;-83
2023/09/11 12:30:52;;;;;;;5.55;5.05;;;27.20;52.50;;;;;;5014951;28;20559;-83
2023/09/11 12:33:22;;;;;;;5.47;4.95;;;27.20;52.60;;;;;;4997941;28;20192;-83
2023/09/11 12:35:53;;;;;;;5.13;4.63;;;27.30;52.70;;;;;;5014064;28;20226;-83
2023/09/11 12:38:20;;;;;;;5.30;4.80;;;27.20;52.70;;;;;;5013399;28;20192;-83
2023/09/11 12:40:48;;;;;;;4.97;4.47;;;27.20;52.80;;;;;;5013145;28;20278;-83
2023/09/11 12:43:15;;;;;;;5.78;5.28;;;27.20;52.80;;;;;;5013622;28;20679;-83
2023/09/11 12:45:43;;;;;;;4.88;4.47;;;27.20;52.90;;;;;;5012866;28;20223;-83
2023/09/11 12:48:11;;;;;;;5.43;4.97;;;27.20;52.90;;;;;;5013199;28;20199;-83
2023/09/11 12:50:39;;;;;;;5.47;5.07;;;27.20;52.90;;;;;;5013385;28;20224;-83